Terminal Aerodrome Forecast
Issued by NWS

Home | Current Version | Previous Version | Graphics & Text | Print | Product List | Glossary On
Versions: 1 2 3 4 5 6 7 8 9 10 11 12 13 14 15 16 17 18 19 20 21 22 23
000
FTUS43 KGRB 241737
TAFMTW
TAF
KMTW 241737Z 2418/2518 03009KT P6SM SCT002 OVC006
      TEMPO 2418/2421 -SHRA BKN002
     FM242100 02011G17KT P6SM SCT006 OVC012
      TEMPO 2421/2424 -SHRA BKN006
     FM250000 02010G16KT P6SM OVC020
     FM250300 01010KT P6SM BKN022
     FM250900 01010KT P6SM BKN014=

USA.gov is the U.S. government's official web portal to all federal, state and local government web resources and services.